Portada
METAR-TAF:

METAR-TAF

Aeropuertos :

Aeropuerto de Annaba - Rabah Bitat

Annaba, Argelia

latitud: 36-50N, longitud: 007-49E, altitud: 4 m

Observación

El informe se hizo hace 39 minutos, a las 09:00 UTC
Viento 7 kt del suroeste
Temperatura 13°C
Humedad 77%
Presión 1033 hPa
Visibilidad 10 km o más
sin nubes por debajo de 1500 m y sin presencia de cumulonimbus.

METAR: DABB 230900Z 23007KT CAVOK 13/09 Q1033

Hora: 10:39 (09:39 UTC)

Pronóstico

El informe se hizo hace 4 horas y 39 minutos, a las 05:00 UTC
Pronóstico válido del 23 a las 06 UTC al 24 a las 06 UTC
Viento 8 kt del suroeste
Visibilidad 10 km o más
Escasas nubes a una altura de 2300 ft
Nubes dispersas a una altura de 3300 ft
Temporalmente
del 23 a las 06 UTC al 23 a las 09 UTC
Visibilidad: 2000 m
Nubes dispersas a una altura de 800 ft
neblina

TAF: DABB 230500Z 2306/2406 22008KT 9999 FEW023 SCT033 TEMPO 2306/2309 2000 BR SCT008

Observaciones y pronósticos meteorológicos de más de 4000 aeropuertos (mensajes METAR y TAF).

Los puntos amarillos y rojos representan las estaciones disponibles.

Ponga el ratón en el punto deseado para ver el nombre de la estación.

Haga clic para ver las observaciones y los pronósticos meteorológicos.

Para cambiar el mapa : haga clic en los botones verdes con una cruz de color negro para hacer un zoom, en el botón verde con un guión para alejar o en las flechas verdes para mapas adyacentes.


METAR-TAF: